EGEO/OBN METAR and TAF weather

Enter ICAO airport designator
Station Type Date Time Source
EGEO METAR 2018/04/17 15:20 UTC NOAA

EGEO 171520Z 16016KT 7000 -SHRA FEW018 SCT021 14/10 Q1004


Station Type Date Time Source
EGEO Decoded METAR 2018/04/17 15:20 UTC NOAA

Station name not available
Apr 17, 2018 - 11:20 AM EDT / 2018.04.17 1520 UTC
Wind: from the SSE (160 degrees) at 18 MPH (16 KT):0
Visibility: 4 mile(s):0
Sky conditions: partly cloudy
Weather: light rain showers
Temperature: 57 F (14 C)
Dew Point: 50 F (10 C)
Relative Humidity: 76%
Pressure (altimeter): 29.65 in. Hg (1004 hPa)
ob: EGEO 171520Z 16016KT 7000 -SHRA FEW018 SCT021 14/10 Q1004
cycle: 15

Station Type Date Time Source
EGEO TAF UTC NOAA

Error!


Example: see airport list